world map with NZFX marked

NZFX - Airport

This information may not be accurate or current and is not valid for navigation or flight planning. No warranty of fitness for any purpose is made or implied.
Donate via PayPal

Additional information is available on the NEW Great Circle Mapper

Location
City:  McMurdo Station, Ross Island, Antarctica
Name:Phoenix Field
ICAO:NZFX

Details
Type:Airport (Aerodrome, Airfield)
Use:Public/Civil
Latitude:77°57'23"S (-77.956271)
Longitude:166°46'00"E (166.766750)
Runways:1

Weather
METAR:NZFX  132155Z 06009KT 9999 FEW020 BKN080 M11/M15 A2886 RMK SLP769 LSR11 GRID23009KT SDF/HDG

Related Locations
Nearby:
Farthest:BGDH: 12314 mi / 19817 km
Danmarkshavn, GL

Find:

   beyond  
but within

Other Information
Maps:
Links:
Sources:

  


 


Great Circle Mapper   Great Circle Mapper
Great Circle Mapper FAQ   Great Circle Mapper FAQ
  Karl's Home Page
KLSē   KLSē Home
   GC on Facebook
Airlines of the World   Airlines of the World
Donate via PayPal


Copyright © 2004-2018, Karl L. Swartz. All rights reserved.
All trademarks mentioned herein belong to their respective owners.

Please see credits for attribution and copyright information.

Karl Swartz <karl@kls2.com>
  Powered by FreeBSD
Valid HTML 4.01!
Labeled with ICRA
hCard Microformat
Geo Microformat